sensor_id;sensor_type;location;lat;lon;timestamp;pressure;altitude;pressure_sealevel;temperature;humidity
16016;BME280;8112;53.592;10.184;2023-01-25T00:04:51;103476.50;;;0.99;100.00
16016;BME280;8112;53.592;10.184;2023-01-25T00:09:55;103463.25;;;0.90;100.00
16016;BME280;8112;53.592;10.184;2023-01-25T00:14:56;103458.25;;;0.98;100.00
16016;BME280;8112;53.592;10.184;2023-01-25T00:19:58;103456.09;;;1.15;100.00
16016;BME280;8112;53.592;10.184;2023-01-25T00:25:01;103447.41;;;0.79;100.00
16016;BME280;8112;53.592;10.184;2023-01-25T00:30:03;103449.81;;;1.05;100.00
16016;BME280;8112;53.592;10.184;2023-01-25T00:35:09;103456.03;;;1.12;100.00
16016;BME280;8112;53.592;10.184;2023-01-25T00:40:12;103444.59;;;0.71;100.00
16016;BME280;8112;53.592;10.184;2023-01-25T00:45:14;103437.47;;;0.96;100.00
16016;BME280;8112;53.592;10.184;2023-01-25T00:50:16;103433.97;;;0.94;100.00
16016;BME280;8112;53.592;10.184;2023-01-25T00:55:19;103433.50;;;0.77;100.00
16016;BME280;8112;53.592;10.184;2023-01-25T01:00:22;103418.34;;;0.59;100.00
16016;BME280;8112;53.592;10.184;2023-01-25T01:05:24;103412.03;;;0.49;100.00
16016;BME280;8112;53.592;10.184;2023-01-25T01:10:28;103407.25;;;0.01;100.00
16016;BME280;8112;53.592;10.184;2023-01-25T01:15:30;103423.41;;;0.21;100.00
16016;BME280;8112;53.592;10.184;2023-01-25T01:20:31;103410.66;;;0.30;100.00
16016;BME280;8112;53.592;10.184;2023-01-25T01:25:34;103405.94;;;0.15;100.00
16016;BME280;8112;53.592;10.184;2023-01-25T01:30:37;103410.06;;;0.08;100.00
16016;BME280;8112;53.592;10.184;2023-01-25T01:35:39;103411.84;;;0.41;100.00
16016;BME280;8112;53.592;10.184;2023-01-25T01:40:44;103409.47;;;0.51;100.00
16016;BME280;8112;53.592;10.184;2023-01-25T01:45:53;103412.25;;;0.25;100.00
16016;BME280;8112;53.592;10.184;2023-01-25T01:51:09;103406.72;;;0.45;100.00
16016;BME280;8112;53.592;10.184;2023-01-25T01:56:16;103399.69;;;0.40;100.00
16016;BME280;8112;53.592;10.184;2023-01-25T02:01:20;103393.69;;;0.41;100.00
16016;BME280;8112;53.592;10.184;2023-01-25T02:06:33;103388.00;;;0.23;100.00
16016;BME280;8112;53.592;10.184;2023-01-25T02:11:38;103393.25;;;-0.06;100.00
16016;BME280;8112;53.592;10.184;2023-01-25T02:16:40;103384.38;;;0.18;100.00
16016;BME280;8112;53.592;10.184;2023-01-25T02:21:44;103386.06;;;0.16;100.00
16016;BME280;8112;53.592;10.184;2023-01-25T02:26:49;103383.97;;;0.02;100.00
16016;BME280;8112;53.592;10.184;2023-01-25T02:31:58;103384.13;;;0.08;100.00
16016;BME280;8112;53.592;10.184;2023-01-25T02:37:01;103368.63;;;0.10;100.00
16016;BME280;8112;53.592;10.184;2023-01-25T02:42:04;103376.22;;;0.04;100.00
16016;BME280;8112;53.592;10.184;2023-01-25T02:47:06;103364.47;;;-0.16;100.00
16016;BME280;8112;53.592;10.184;2023-01-25T02:52:08;103361.56;;;0.04;100.00
16016;BME280;8112;53.592;10.184;2023-01-25T02:57:11;103359.63;;;-0.03;100.00
16016;BME280;8112;53.592;10.184;2023-01-25T03:02:16;103356.06;;;-0.07;100.00
16016;BME280;8112;53.592;10.184;2023-01-25T03:07:18;103356.69;;;0.17;100.00
16016;BME280;8112;53.592;10.184;2023-01-25T03:12:21;103332.66;;;-0.40;100.00
16016;BME280;8112;53.592;10.184;2023-01-25T03:17:23;103333.53;;;-0.40;100.00
16016;BME280;8112;53.592;10.184;2023-01-25T03:22:25;103336.34;;;-0.32;100.00
16016;BME280;8112;53.592;10.184;2023-01-25T03:27:29;103329.94;;;-0.15;100.00
16016;BME280;8112;53.592;10.184;2023-01-25T03:32:37;103319.50;;;-0.18;100.00
16016;BME280;8112;53.592;10.184;2023-01-25T03:37:43;103315.31;;;-0.11;100.00
16016;BME280;8112;53.592;10.184;2023-01-25T03:42:47;103308.84;;;-0.27;100.00
16016;BME280;8112;53.592;10.184;2023-01-25T03:47:49;103297.84;;;-0.18;100.00
16016;BME280;8112;53.592;10.184;2023-01-25T03:52:53;103303.81;;;-0.21;100.00
16016;BME280;8112;53.592;10.184;2023-01-25T03:58:05;103305.34;;;-0.29;100.00
16016;BME280;8112;53.592;10.184;2023-01-25T04:03:08;103295.97;;;0.08;100.00
16016;BME280;8112;53.592;10.184;2023-01-25T04:08:10;103298.47;;;0.05;100.00
16016;BME280;8112;53.592;10.184;2023-01-25T04:13:15;103297.03;;;0.17;100.00
16016;BME280;8112;53.592;10.184;2023-01-25T04:18:17;103302.50;;;-0.06;100.00
16016;BME280;8112;53.592;10.184;2023-01-25T04:23:19;103294.00;;;-0.33;100.00
16016;BME280;8112;53.592;10.184;2023-01-25T04:28:22;103285.06;;;-0.44;100.00
16016;BME280;8112;53.592;10.184;2023-01-25T04:33:25;103283.50;;;-0.37;100.00
16016;BME280;8112;53.592;10.184;2023-01-25T04:38:27;103273.34;;;-0.62;100.00
16016;BME280;8112;53.592;10.184;2023-01-25T04:43:30;103269.59;;;-0.41;100.00
16016;BME280;8112;53.592;10.184;2023-01-25T04:48:38;103262.41;;;-0.51;100.00
16016;BME280;8112;53.592;10.184;2023-01-25T04:53:41;103264.91;;;-0.85;100.00
16016;BME280;8112;53.592;10.184;2023-01-25T04:58:45;103250.50;;;-0.45;100.00
16016;BME280;8112;53.592;10.184;2023-01-25T05:03:47;103254.38;;;-0.29;100.00
16016;BME280;8112;53.592;10.184;2023-01-25T05:09:01;103252.22;;;-0.45;100.00
16016;BME280;8112;53.592;10.184;2023-01-25T05:14:04;103248.88;;;-0.41;100.00
16016;BME280;8112;53.592;10.184;2023-01-25T05:19:08;103245.19;;;-0.49;100.00
16016;BME280;8112;53.592;10.184;2023-01-25T05:24:42;103234.19;;;-0.40;100.00
16016;BME280;8112;53.592;10.184;2023-01-25T05:29:47;103231.50;;;-0.45;100.00
16016;BME280;8112;53.592;10.184;2023-01-25T05:34:49;103224.78;;;-0.37;100.00
16016;BME280;8112;53.592;10.184;2023-01-25T05:39:52;103220.03;;;-0.53;100.00
16016;BME280;8112;53.592;10.184;2023-01-25T05:44:55;103218.00;;;-0.33;100.00
16016;BME280;8112;53.592;10.184;2023-01-25T05:49:58;103213.38;;;-0.10;100.00
16016;BME280;8112;53.592;10.184;2023-01-25T05:55:22;103212.16;;;-0.24;100.00
16016;BME280;8112;53.592;10.184;2023-01-25T06:00:27;103198.31;;;-0.25;100.00
16016;BME280;8112;53.592;10.184;2023-01-25T06:05:30;103197.47;;;-0.58;100.00
16016;BME280;8112;53.592;10.184;2023-01-25T06:10:31;103193.75;;;-0.67;100.00
16016;BME280;8112;53.592;10.184;2023-01-25T06:15:34;103197.25;;;-0.33;100.00
16016;BME280;8112;53.592;10.184;2023-01-25T06:21:06;103196.09;;;-0.45;100.00
16016;BME280;8112;53.592;10.184;2023-01-25T06:26:11;103199.78;;;-0.36;100.00
16016;BME280;8112;53.592;10.184;2023-01-25T06:31:16;103196.13;;;-0.43;100.00
16016;BME280;8112;53.592;10.184;2023-01-25T06:36:20;103209.78;;;-0.49;100.00
16016;BME280;8112;53.592;10.184;2023-01-25T06:41:24;103203.63;;;-0.54;100.00
16016;BME280;8112;53.592;10.184;2023-01-25T06:46:27;103197.47;;;-0.24;100.00
16016;BME280;8112;53.592;10.184;2023-01-25T06:51:28;103189.69;;;-0.24;100.00
16016;BME280;8112;53.592;10.184;2023-01-25T06:56:30;103204.44;;;-0.55;100.00
16016;BME280;8112;53.592;10.184;2023-01-25T07:01:34;103210.22;;;-0.33;100.00
16016;BME280;8112;53.592;10.184;2023-01-25T07:06:37;103199.94;;;-0.29;100.00
16016;BME280;8112;53.592;10.184;2023-01-25T07:11:39;103182.78;;;-0.25;100.00
16016;BME280;8112;53.592;10.184;2023-01-25T07:16:42;103178.88;;;-0.07;100.00
16016;BME280;8112;53.592;10.184;2023-01-25T07:21:44;103178.38;;;0.06;100.00
16016;BME280;8112;53.592;10.184;2023-01-25T07:26:46;103167.03;;;0.03;100.00
16016;BME280;8112;53.592;10.184;2023-01-25T07:31:50;103161.72;;;-0.02;100.00
16016;BME280;8112;53.592;10.184;2023-01-25T07:36:51;103152.31;;;0.02;100.00
16016;BME280;8112;53.592;10.184;2023-01-25T07:41:53;103150.50;;;-0.01;100.00
16016;BME280;8112;53.592;10.184;2023-01-25T07:47:04;103152.94;;;-0.09;100.00
16016;BME280;8112;53.592;10.184;2023-01-25T07:52:06;103155.56;;;-0.07;100.00
16016;BME280;8112;53.592;10.184;2023-01-25T07:57:07;103143.22;;;-0.18;100.00
16016;BME280;8112;53.592;10.184;2023-01-25T08:02:10;103123.22;;;-0.23;100.00
16016;BME280;8112;53.592;10.184;2023-01-25T08:07:13;103114.22;;;-0.01;100.00
16016;BME280;8112;53.592;10.184;2023-01-25T08:12:15;103120.59;;;0.13;100.00
16016;BME280;8112;53.592;10.184;2023-01-25T08:17:19;103126.31;;;-0.02;100.00
16016;BME280;8112;53.592;10.184;2023-01-25T08:22:21;103121.66;;;-0.17;100.00
16016;BME280;8112;53.592;10.184;2023-01-25T08:27:22;103105.22;;;-0.17;100.00
16016;BME280;8112;53.592;10.184;2023-01-25T08:32:25;103104.09;;;-0.27;100.00
16016;BME280;8112;53.592;10.184;2023-01-25T08:37:27;103100.59;;;-0.29;100.00
16016;BME280;8112;53.592;10.184;2023-01-25T08:42:29;103093.88;;;-0.21;100.00
16016;BME280;8112;53.592;10.184;2023-01-25T08:47:32;103083.19;;;0.02;100.00
16016;BME280;8112;53.592;10.184;2023-01-25T08:52:33;103078.44;;;-0.16;100.00
16016;BME280;8112;53.592;10.184;2023-01-25T08:57:35;103071.41;;;0.17;100.00
16016;BME280;8112;53.592;10.184;2023-01-25T09:02:38;103062.59;;;0.08;100.00
16016;BME280;8112;53.592;10.184;2023-01-25T09:07:40;103051.56;;;-0.20;100.00
16016;BME280;8112;53.592;10.184;2023-01-25T09:12:41;103057.53;;;0.14;100.00
16016;BME280;8112;53.592;10.184;2023-01-25T09:17:44;103054.06;;;0.14;100.00
16016;BME280;8112;53.592;10.184;2023-01-25T09:22:46;103045.00;;;-0.05;100.00
16016;BME280;8112;53.592;10.184;2023-01-25T09:27:48;103045.78;;;-0.09;100.00
16016;BME280;8112;53.592;10.184;2023-01-25T09:32:52;103035.97;;;0.17;100.00
16016;BME280;8112;53.592;10.184;2023-01-25T09:37:53;103041.16;;;0.17;100.00
16016;BME280;8112;53.592;10.184;2023-01-25T09:42:58;103042.19;;;0.25;100.00
16016;BME280;8112;53.592;10.184;2023-01-25T09:48:20;103029.84;;;0.13;100.00
16016;BME280;8112;53.592;10.184;2023-01-25T09:53:28;103027.81;;;-0.02;100.00
16016;BME280;8112;53.592;10.184;2023-01-25T09:58:33;103019.41;;;0.10;100.00
16016;BME280;8112;53.592;10.184;2023-01-25T10:03:42;103008.75;;;-0.02;100.00
16016;BME280;8112;53.592;10.184;2023-01-25T10:08:52;103005.66;;;0.14;100.00
16016;BME280;8112;53.592;10.184;2023-01-25T10:13:58;103004.75;;;0.11;100.00
16016;BME280;8112;53.592;10.184;2023-01-25T10:19:11;103003.22;;;0.22;100.00
16016;BME280;8112;53.592;10.184;2023-01-25T10:24:45;102981.47;;;0.16;100.00
16016;BME280;8112;53.592;10.184;2023-01-25T10:29:55;102977.19;;;0.18;100.00
16016;BME280;8112;53.592;10.184;2023-01-25T10:35:09;102976.28;;;0.16;100.00
16016;BME280;8112;53.592;10.184;2023-01-25T10:40:18;102968.41;;;0.09;100.00
16016;BME280;8112;53.592;10.184;2023-01-25T10:45:21;102953.22;;;0.28;100.00
16016;BME280;8112;53.592;10.184;2023-01-25T10:50:45;102960.44;;;0.00;100.00
16016;BME280;8112;53.592;10.184;2023-01-25T10:55:57;102948.19;;;0.36;100.00
16016;BME280;8112;53.592;10.184;2023-01-25T11:01:00;102941.50;;;0.04;100.00
16016;BME280;8112;53.592;10.184;2023-01-25T11:06:04;102936.44;;;0.10;100.00
16016;BME280;8112;53.592;10.184;2023-01-25T11:11:30;102925.56;;;0.28;100.00
16016;BME280;8112;53.592;10.184;2023-01-25T11:16:36;102903.75;;;0.19;100.00
16016;BME280;8112;53.592;10.184;2023-01-25T11:21:50;102891.84;;;0.30;100.00
16016;BME280;8112;53.592;10.184;2023-01-25T11:27:11;102874.75;;;0.40;100.00
16016;BME280;8112;53.592;10.184;2023-01-25T11:32:16;102860.84;;;0.36;100.00
16016;BME280;8112;53.592;10.184;2023-01-25T11:37:34;102849.91;;;0.54;100.00
16016;BME280;8112;53.592;10.184;2023-01-25T11:42:50;102849.97;;;0.57;100.00
16016;BME280;8112;53.592;10.184;2023-01-25T11:48:11;102829.41;;;0.71;100.00
16016;BME280;8112;53.592;10.184;2023-01-25T11:53:55;102814.00;;;0.81;100.00
16016;BME280;8112;53.592;10.184;2023-01-25T11:59:11;102806.53;;;0.46;100.00
16016;BME280;8112;53.592;10.184;2023-01-25T12:04:51;102789.19;;;0.41;100.00
16016;BME280;8112;53.592;10.184;2023-01-25T12:10:06;102772.97;;;0.55;100.00
16016;BME280;8112;53.592;10.184;2023-01-25T12:15:29;102772.13;;;0.57;100.00
16016;BME280;8112;53.592;10.184;2023-01-25T12:20:43;102760.81;;;0.54;100.00
16016;BME280;8112;53.592;10.184;2023-01-25T12:26:04;102742.88;;;0.68;100.00
16016;BME280;8112;53.592;10.184;2023-01-25T12:31:11;102743.50;;;0.53;100.00
16016;BME280;8112;53.592;10.184;2023-01-25T12:36:17;102714.56;;;0.26;100.00
16016;BME280;8112;53.592;10.184;2023-01-25T12:41:29;102706.97;;;0.37;100.00
16016;BME280;8112;53.592;10.184;2023-01-25T12:46:37;102704.13;;;0.22;100.00
16016;BME280;8112;53.592;10.184;2023-01-25T12:51:41;102706.56;;;0.12;100.00
16016;BME280;8112;53.592;10.184;2023-01-25T12:56:50;102678.63;;;-0.04;100.00
16016;BME280;8112;53.592;10.184;2023-01-25T13:01:57;102674.38;;;-0.01;100.00
16016;BME280;8112;53.592;10.184;2023-01-25T13:07:11;102678.63;;;-0.04;100.00
16016;BME280;8112;53.592;10.184;2023-01-25T13:12:18;102665.97;;;0.13;100.00
16016;BME280;8112;53.592;10.184;2023-01-25T13:17:23;102660.03;;;0.22;100.00
16016;BME280;8112;53.592;10.184;2023-01-25T13:23:02;102656.47;;;0.17;100.00
16016;BME280;8112;53.592;10.184;2023-01-25T13:28:38;102651.25;;;0.13;100.00
16016;BME280;8112;53.592;10.184;2023-01-25T13:33:40;102638.16;;;0.04;100.00
16016;BME280;8112;53.592;10.184;2023-01-25T13:38:42;102623.66;;;0.17;100.00
16016;BME280;8112;53.592;10.184;2023-01-25T13:43:47;102621.44;;;0.44;100.00
16016;BME280;8112;53.592;10.184;2023-01-25T13:49:03;102627.03;;;0.11;100.00
16016;BME280;8112;53.592;10.184;2023-01-25T13:54:14;102611.81;;;0.35;100.00
16016;BME280;8112;53.592;10.184;2023-01-25T13:59:26;102605.81;;;0.39;100.00
16016;BME280;8112;53.592;10.184;2023-01-25T14:04:28;102607.44;;;0.32;100.00
16016;BME280;8112;53.592;10.184;2023-01-25T14:09:33;102608.41;;;0.37;100.00
16016;BME280;8112;53.592;10.184;2023-01-25T14:14:36;102599.66;;;0.32;100.00
16016;BME280;8112;53.592;10.184;2023-01-25T14:19:39;102601.94;;;0.10;100.00
16016;BME280;8112;53.592;10.184;2023-01-25T14:24:43;102595.03;;;0.09;100.00
16016;BME280;8112;53.592;10.184;2023-01-25T14:29:48;102586.53;;;0.21;100.00
16016;BME280;8112;53.592;10.184;2023-01-25T14:34:50;102577.97;;;0.27;100.00
16016;BME280;8112;53.592;10.184;2023-01-25T14:39:51;102570.03;;;0.14;100.00
16016;BME280;8112;53.592;10.184;2023-01-25T14:44:56;102570.28;;;0.32;100.00
16016;BME280;8112;53.592;10.184;2023-01-25T14:50:32;102575.31;;;0.21;100.00
16016;BME280;8112;53.592;10.184;2023-01-25T14:55:35;102557.06;;;0.13;100.00
16016;BME280;8112;53.592;10.184;2023-01-25T15:00:38;102560.63;;;0.21;100.00
16016;BME280;8112;53.592;10.184;2023-01-25T15:05:44;102569.28;;;0.22;100.00
16016;BME280;8112;53.592;10.184;2023-01-25T15:10:50;102561.69;;;0.36;100.00
16016;BME280;8112;53.592;10.184;2023-01-25T15:15:55;102559.16;;;0.40;100.00
16016;BME280;8112;53.592;10.184;2023-01-25T15:20:57;102539.31;;;0.46;100.00
16016;BME280;8112;53.592;10.184;2023-01-25T15:25:59;102546.22;;;0.44;100.00
16016;BME280;8112;53.592;10.184;2023-01-25T15:31:04;102544.19;;;0.21;100.00
16016;BME280;8112;53.592;10.184;2023-01-25T15:36:08;102530.25;;;0.11;100.00
16016;BME280;8112;53.592;10.184;2023-01-25T15:41:09;102533.47;;;-0.06;100.00
16016;BME280;8112;53.592;10.184;2023-01-25T15:46:16;102525.41;;;-0.24;100.00
16016;BME280;8112;53.592;10.184;2023-01-25T15:51:18;102512.56;;;-0.17;100.00
16016;BME280;8112;53.592;10.184;2023-01-25T15:56:22;102493.59;;;-0.16;100.00
16016;BME280;8112;53.592;10.184;2023-01-25T16:01:28;102490.09;;;-0.18;100.00
16016;BME280;8112;53.592;10.184;2023-01-25T16:06:36;102503.84;;;-0.22;100.00
16016;BME280;8112;53.592;10.184;2023-01-25T16:11:41;102496.91;;;-0.24;100.00
16016;BME280;8112;53.592;10.184;2023-01-25T16:16:46;102497.03;;;-0.17;100.00
16016;BME280;8112;53.592;10.184;2023-01-25T16:21:48;102493.13;;;-0.47;100.00
16016;BME280;8112;53.592;10.184;2023-01-25T16:26:53;102494.91;;;-0.43;100.00
16016;BME280;8112;53.592;10.184;2023-01-25T16:31:56;102495.06;;;-0.33;100.00
16016;BME280;8112;53.592;10.184;2023-01-25T16:36:58;102489.91;;;-0.30;100.00
16016;BME280;8112;53.592;10.184;2023-01-25T16:42:01;102494.25;;;-0.27;100.00
16016;BME280;8112;53.592;10.184;2023-01-25T16:47:04;102479.41;;;-0.39;100.00
16016;BME280;8112;53.592;10.184;2023-01-25T16:52:06;102470.66;;;-0.46;100.00
16016;BME280;8112;53.592;10.184;2023-01-25T16:57:08;102476.66;;;-0.50;100.00
16016;BME280;8112;53.592;10.184;2023-01-25T17:02:12;102486.41;;;-0.35;100.00
16016;BME280;8112;53.592;10.184;2023-01-25T17:07:13;102470.16;;;-0.23;100.00
16016;BME280;8112;53.592;10.184;2023-01-25T17:12:15;102477.28;;;-0.65;100.00
16016;BME280;8112;53.592;10.184;2023-01-25T17:17:18;102481.19;;;-0.37;100.00
16016;BME280;8112;53.592;10.184;2023-01-25T17:22:20;102479.22;;;-0.52;100.00
16016;BME280;8112;53.592;10.184;2023-01-25T17:27:21;102464.66;;;-0.45;100.00
16016;BME280;8112;53.592;10.184;2023-01-25T17:32:25;102461.88;;;-0.56;100.00
16016;BME280;8112;53.592;10.184;2023-01-25T17:37:28;102469.47;;;-0.67;100.00
16016;BME280;8112;53.592;10.184;2023-01-25T17:42:29;102449.44;;;-0.79;100.00
16016;BME280;8112;53.592;10.184;2023-01-25T17:47:33;102444.09;;;-0.91;100.00
16016;BME280;8112;53.592;10.184;2023-01-25T17:52:35;102439.28;;;-0.66;100.00
16016;BME280;8112;53.592;10.184;2023-01-25T17:57:37;102425.84;;;-0.40;100.00
16016;BME280;8112;53.592;10.184;2023-01-25T18:02:41;102415.47;;;-0.40;100.00
16016;BME280;8112;53.592;10.184;2023-01-25T18:07:44;102410.41;;;-0.34;100.00
16016;BME280;8112;53.592;10.184;2023-01-25T18:12:45;102398.16;;;-0.45;100.00
16016;BME280;8112;53.592;10.184;2023-01-25T18:17:51;102401.31;;;-0.67;100.00
16016;BME280;8112;53.592;10.184;2023-01-25T18:22:53;102397.78;;;-0.73;100.00
16016;BME280;8112;53.592;10.184;2023-01-25T18:27:54;102393.06;;;-1.00;100.00
16016;BME280;8112;53.592;10.184;2023-01-25T18:32:57;102373.56;;;-0.75;100.00
16016;BME280;8112;53.592;10.184;2023-01-25T18:38:00;102365.09;;;-0.64;100.00
16016;BME280;8112;53.592;10.184;2023-01-25T18:43:02;102367.28;;;-0.91;100.00
16016;BME280;8112;53.592;10.184;2023-01-25T18:48:05;102364.06;;;-0.77;100.00
16016;BME280;8112;53.592;10.184;2023-01-25T18:53:12;102352.09;;;-0.66;100.00
16016;BME280;8112;53.592;10.184;2023-01-25T18:58:16;102355.50;;;-0.72;100.00
16016;BME280;8112;53.592;10.184;2023-01-25T19:03:19;102352.47;;;-1.03;100.00
16016;BME280;8112;53.592;10.184;2023-01-25T19:08:21;102346.41;;;-1.03;100.00
16016;BME280;8112;53.592;10.184;2023-01-25T19:13:25;102345.09;;;-1.32;100.00
16016;BME280;8112;53.592;10.184;2023-01-25T19:18:30;102355.59;;;-1.22;100.00
16016;BME280;8112;53.592;10.184;2023-01-25T19:23:33;102331.94;;;-0.90;100.00
16016;BME280;8112;53.592;10.184;2023-01-25T19:28:35;102333.69;;;-0.89;100.00
16016;BME280;8112;53.592;10.184;2023-01-25T19:33:39;102331.78;;;-0.99;100.00
16016;BME280;8112;53.592;10.184;2023-01-25T19:38:41;102317.88;;;-1.08;100.00
16016;BME280;8112;53.592;10.184;2023-01-25T19:43:43;102317.94;;;-1.05;100.00
16016;BME280;8112;53.592;10.184;2023-01-25T19:48:48;102316.75;;;-1.25;100.00
16016;BME280;8112;53.592;10.184;2023-01-25T19:53:52;102305.59;;;-1.21;100.00
16016;BME280;8112;53.592;10.184;2023-01-25T19:58:54;102287.88;;;-0.93;100.00
16016;BME280;8112;53.592;10.184;2023-01-25T20:03:58;102292.25;;;-0.91;100.00
16016;BME280;8112;53.592;10.184;2023-01-25T20:09:01;102285.22;;;-0.99;100.00
16016;BME280;8112;53.592;10.184;2023-01-25T20:14:04;102287.28;;;-0.74;100.00
16016;BME280;8112;53.592;10.184;2023-01-25T20:19:09;102274.06;;;-0.94;100.00
16016;BME280;8112;53.592;10.184;2023-01-25T20:24:11;102273.13;;;-1.01;100.00
16016;BME280;8112;53.592;10.184;2023-01-25T20:29:13;102258.09;;;-0.62;100.00
16016;BME280;8112;53.592;10.184;2023-01-25T20:34:17;102255.66;;;-0.46;100.00
16016;BME280;8112;53.592;10.184;2023-01-25T20:39:20;102252.25;;;-0.45;100.00
16016;BME280;8112;53.592;10.184;2023-01-25T20:44:22;102253.16;;;-0.40;100.00
16016;BME280;8112;53.592;10.184;2023-01-25T20:49:25;102252.16;;;-0.51;100.00
16016;BME280;8112;53.592;10.184;2023-01-25T20:54:27;102250.56;;;-0.43;100.00
16016;BME280;8112;53.592;10.184;2023-01-25T20:59:28;102249.25;;;-0.79;100.00
16016;BME280;8112;53.592;10.184;2023-01-25T21:04:31;102236.81;;;-0.36;100.00
16016;BME280;8112;53.592;10.184;2023-01-25T21:09:33;102240.25;;;-0.37;100.00
16016;BME280;8112;53.592;10.184;2023-01-25T21:14:34;102239.13;;;-0.59;100.00
16016;BME280;8112;53.592;10.184;2023-01-25T21:19:37;102240.25;;;-0.37;100.00
16016;BME280;8112;53.592;10.184;2023-01-25T21:24:39;102244.41;;;-0.53;100.00
16016;BME280;8112;53.592;10.184;2023-01-25T21:29:41;102234.50;;;-0.83;100.00
16016;BME280;8112;53.592;10.184;2023-01-25T21:34:44;102220.06;;;-0.67;100.00
16016;BME280;8112;53.592;10.184;2023-01-25T21:39:46;102214.16;;;-0.52;100.00
16016;BME280;8112;53.592;10.184;2023-01-25T21:44:48;102213.41;;;-0.45;100.00
16016;BME280;8112;53.592;10.184;2023-01-25T21:50:09;102209.81;;;-0.55;100.00
16016;BME280;8112;53.592;10.184;2023-01-25T21:55:29;102201.81;;;-0.78;100.00
16016;BME280;8112;53.592;10.184;2023-01-25T22:00:30;102205.19;;;-0.82;100.00
16016;BME280;8112;53.592;10.184;2023-01-25T22:05:33;102207.81;;;-0.81;100.00
16016;BME280;8112;53.592;10.184;2023-01-25T22:10:35;102208.38;;;-1.04;100.00
16016;BME280;8112;53.592;10.184;2023-01-25T22:15:37;102198.69;;;-1.20;100.00
16016;BME280;8112;53.592;10.184;2023-01-25T22:20:40;102207.72;;;-0.89;100.00
16016;BME280;8112;53.592;10.184;2023-01-25T22:25:41;102184.34;;;-0.93;100.00
16016;BME280;8112;53.592;10.184;2023-01-25T22:30:43;102176.66;;;-0.90;100.00
16016;BME280;8112;53.592;10.184;2023-01-25T22:35:48;102173.25;;;-0.83;100.00
16016;BME280;8112;53.592;10.184;2023-01-25T22:40:49;102173.44;;;-0.67;100.00
16016;BME280;8112;53.592;10.184;2023-01-25T22:45:51;102166.53;;;-0.68;100.00
16016;BME280;8112;53.592;10.184;2023-01-25T22:50:59;102165.69;;;-0.67;100.00
16016;BME280;8112;53.592;10.184;2023-01-25T22:56:01;102164.78;;;-0.73;100.00
16016;BME280;8112;53.592;10.184;2023-01-25T23:01:06;102173.31;;;-0.77;100.00
16016;BME280;8112;53.592;10.184;2023-01-25T23:06:12;102167.91;;;-0.98;100.00
16016;BME280;8112;53.592;10.184;2023-01-25T23:11:15;102155.84;;;-0.96;100.00
16016;BME280;8112;53.592;10.184;2023-01-25T23:16:18;102154.09;;;-0.97;100.00
16016;BME280;8112;53.592;10.184;2023-01-25T23:21:22;102154.09;;;-0.97;100.00
16016;BME280;8112;53.592;10.184;2023-01-25T23:26:26;102148.25;;;-0.84;100.00
16016;BME280;8112;53.592;10.184;2023-01-25T23:31:29;102142.69;;;-1.15;100.00
16016;BME280;8112;53.592;10.184;2023-01-25T23:36:33;102132.69;;;-0.87;100.00
16016;BME280;8112;53.592;10.184;2023-01-25T23:41:35;102122.41;;;-0.79;100.00
16016;BME280;8112;53.592;10.184;2023-01-25T23:46:37;102123.19;;;-0.85;100.00
16016;BME280;8112;53.592;10.184;2023-01-25T23:51:40;102119.97;;;-0.62;100.00
16016;BME280;8112;53.592;10.184;2023-01-25T23:56:41;102107.53;;;-0.97;100.00
